Time;durP1;ratioP1;P1;durP2;ratioP2;P2;SDS_P1;SDS_P2;PMS_P1;PMS_P2;Temp;Humidity;BMP_temperature;BMP_pressure;BME280_temperature;BME280_humidity;BME280_pressure;Samples;Min_cycle;Max_cycle;Signal;HPM_P1;HPM_P2
2023/07/27 00:03:31;;;;;;;5.70;3.10;;;;;;;12.78;99.90;99886.86;177101;1262;46130;-82
2023/07/27 00:07:34;;;;;;;3.80;2.20;;;;;;;12.75;99.98;99884.45;176898;1259;46130;-81
2023/07/27 00:11:37;;;;;;;4.90;3.10;;;;;;;12.75;100.00;99883.76;176287;1259;46115;-81
2023/07/27 00:15:40;;;;;;;3.80;3.40;;;;;;;12.75;100.00;99882.79;177121;1263;46195;-81
2023/07/27 00:19:43;;;;;;;3.40;2.60;;;;;;;12.75;100.00;99887.79;177835;1259;60125;-81
2023/07/27 00:23:46;;;;;;;4.90;3.10;;;;;;;12.75;100.00;99889.91;177247;1263;46117;-81
2023/07/27 00:27:49;;;;;;;6.20;3.90;;;;;;;12.75;100.00;99887.80;176807;1259;46053;-81
2023/07/27 00:31:52;;;;;;;39.40;3.80;;;;;;;12.78;100.00;99885.90;177652;1259;45985;-81
2023/07/27 00:35:56;;;;;;;4.10;3.20;;;;;;;12.80;100.00;99893.26;177144;1259;46008;-81
2023/07/27 00:39:59;;;;;;;4.00;2.50;;;;;;;12.81;100.00;99892.07;176012;1259;59633;-80
2023/07/27 00:44:02;;;;;;;3.40;2.80;;;;;;;12.84;100.00;99889.44;177246;1259;46065;-81
2023/07/27 00:48:05;;;;;;;4.40;4.00;;;;;;;12.88;100.00;99893.13;177114;1259;46104;-82
2023/07/27 00:52:08;;;;;;;3.20;2.90;;;;;;;12.92;100.00;99894.02;177604;1263;46116;-81
2023/07/27 00:56:11;;;;;;;6.00;3.20;;;;;;;12.96;100.00;99892.69;177042;1259;46116;-81
2023/07/27 01:00:14;;;;;;;4.60;3.10;;;;;;;12.94;100.00;99890.59;176354;1261;58476;-80
2023/07/27 01:04:17;;;;;;;3.50;3.00;;;;;;;12.92;100.00;99887.41;177991;1262;46007;-81
2023/07/27 01:08:20;;;;;;;3.80;3.10;;;;;;;12.89;100.00;99887.74;177102;1259;46002;-81
2023/07/27 01:12:34;;;;;;;4.60;3.20;;;;;;;12.87;100.00;99883.05;177408;1259;45992;-81
2023/07/27 01:17:10;;;;;;;3.50;3.20;;;;;;;12.88;100.00;99885.16;177407;1260;46109;-81
2023/07/27 01:21:19;;;;;;;3.30;2.80;;;;;;;12.76;100.00;99880.23;177464;1259;59222;-81
2023/07/27 01:25:34;;;;;;;5.50;4.00;;;;;;;12.64;100.00;99872.19;176983;1259;46212;-81
2023/07/27 01:30:14;;;;;;;13.80;4.80;;;;;;;12.63;100.00;99877.56;177263;1260;45994;-81
2023/07/27 01:34:29;;;;;;;6.40;4.70;;;;;;;12.68;100.00;99876.55;176903;1259;46006;-81
2023/07/27 01:38:36;;;;;;;3.90;3.10;;;;;;;12.74;100.00;99878.31;177821;1259;44194;-81
2023/07/27 01:42:40;;;;;;;3.70;3.20;;;;;;;12.78;100.00;99877.52;176897;1262;58179;-81
2023/07/27 01:46:44;;;;;;;3.00;2.70;;;;;;;12.79;100.00;99875.55;176924;1260;46210;-81
2023/07/27 01:50:50;;;;;;;4.80;3.50;;;;;;;12.77;100.00;99874.28;177551;1262;46089;-81
2023/07/27 01:54:54;;;;;;;4.10;3.50;;;;;;;12.78;100.00;99868.38;176887;1260;46105;-81
2023/07/27 01:58:57;;;;;;;4.70;3.60;;;;;;;12.80;100.00;99866.67;177596;1260;45268;-81
2023/07/27 02:03:01;;;;;;;3.10;2.80;;;;;;;12.84;100.00;99865.96;176323;1265;58234;-81
2023/07/27 02:07:05;;;;;;;4.00;3.10;;;;;;;12.82;100.00;99871.46;176730;1259;47579;-81
2023/07/27 02:11:11;;;;;;;9.20;7.40;;;;;;;12.84;100.00;99868.91;176768;1260;46220;-81
2023/07/27 02:15:20;;;;;;;6.00;5.00;;;;;;;12.83;100.00;99868.73;177369;1259;46008;-81
2023/07/27 02:19:29;;;;;;;5.40;3.90;;;;;;;12.74;100.00;99873.20;176891;1259;46040;-81
2023/07/27 02:23:35;;;;;;;23.90;8.40;;;;;;;12.61;100.00;99873.13;176602;1260;58199;-80
2023/07/27 02:27:38;;;;;;;43.40;10.30;;;;;;;12.50;100.00;99875.23;177382;1264;46120;-81
2023/07/27 02:31:40;;;;;;;9.80;6.00;;;;;;;12.53;100.00;99871.23;177094;1262;46150;-81
2023/07/27 02:35:43;;;;;;;5.60;3.80;;;;;;;12.61;100.00;99871.54;177161;1260;46052;-81
2023/07/27 02:50:51;;;;;;;5.10;2.60;;;;;;;12.93;100.00;99878.25;179135;1265;44698;-73
2023/07/27 02:54:53;;;;;;;9.00;2.90;;;;;;;13.04;100.00;99886.23;179109;1267;46210;-72
2023/07/27 02:59:00;;;;;;;3.30;2.40;;;;;;;13.17;100.00;99884.81;179089;1267;46063;-73
2023/07/27 03:03:29;;;;;;;;;;;;;;;13.25;100.00;99883.12;179150;1266;44354;-74
2023/07/27 03:07:32;;;;;;;4.20;3.30;;;;;;;13.27;100.00;99881.10;179141;1266;58242;-73
2023/07/27 03:11:40;;;;;;;10.80;2.90;;;;;;;13.24;100.00;99882.45;179140;1267;44885;-74
2023/07/27 03:15:49;;;;;;;10.60;3.60;;;;;;;13.14;100.00;99885.80;179118;1267;46011;-73
2023/07/27 03:19:52;;;;;;;6.70;4.50;;;;;;;13.06;100.00;99891.27;179345;1267;45960;-65
2023/07/27 03:24:02;;;;;;;5.30;3.80;;;;;;;13.04;100.00;99895.38;179490;1266;44826;-65
2023/07/27 03:28:07;;;;;;;5.50;2.90;;;;;;;13.07;100.00;99898.48;179341;1267;58413;-65
2023/07/27 03:32:10;;;;;;;5.90;3.70;;;;;;;13.10;100.00;99895.80;179380;1267;43935;-64
2023/07/27 03:36:16;;;;;;;4.50;2.60;;;;;;;13.15;100.00;99895.15;179450;1267;45822;-64
2023/07/27 03:40:24;;;;;;;3.30;2.70;;;;;;;13.19;100.00;99892.42;179466;1266;43714;-65
2023/07/27 03:44:29;;;;;;;15.50;2.40;;;;;;;13.22;100.00;99891.94;179451;1267;44659;-65
2023/07/27 03:48:33;;;;;;;3.30;2.70;;;;;;;13.29;100.00;99890.56;179242;1267;58456;-65
2023/07/27 03:53:06;;;;;;;2.60;2.00;;;;;;;13.36;100.00;99893.77;179438;1267;46032;-64
2023/07/27 03:57:09;;;;;;;2.40;1.90;;;;;;;13.46;100.00;99897.79;179405;1266;45988;-65
2023/07/27 04:01:11;;;;;;;3.70;3.30;;;;;;;13.57;100.00;99900.65;179232;1267;46149;-64
2023/07/27 04:05:14;;;;;;;8.30;2.90;;;;;;;13.75;100.00;99904.23;179478;1267;43825;-64
2023/07/27 04:09:18;;;;;;;4.60;3.10;;;;;;;13.96;100.00;99907.77;178039;1266;93892;-82
2023/07/27 04:13:21;;;;;;;4.30;2.40;;;;;;;14.15;100.00;99904.61;176565;1265;46131;-83
2023/07/27 04:17:23;;;;;;;3.80;3.00;;;;;;;14.32;100.00;99907.08;177111;1265;46158;-83
2023/07/27 04:21:26;;;;;;;5.70;3.50;;;;;;;14.54;100.00;99908.11;176920;1265;46034;-83
2023/07/27 04:25:29;;;;;;;4.20;2.30;;;;;;;14.69;100.00;99914.14;177150;1265;46024;-82
2023/07/27 04:29:32;;;;;;;3.20;2.90;;;;;;;15.00;100.00;99913.59;176795;1266;59246;-83
2023/07/27 04:33:35;;;;;;;4.90;2.90;;;;;;;15.96;100.00;99911.77;177928;1265;46160;-83
2023/07/27 04:37:38;;;;;;;3.70;2.90;;;;;;;16.33;97.87;99908.39;178242;1263;46042;-82
2023/07/27 04:41:41;;;;;;;4.80;3.40;;;;;;;16.45;95.21;99906.86;177676;1267;46141;-82
2023/07/27 04:45:45;;;;;;;4.90;3.00;;;;;;;17.18;93.64;99902.44;177720;1264;46195;-82
2023/07/27 04:49:48;;;;;;;3.30;2.40;;;;;;;17.81;89.82;99905.50;178310;1267;60365;-82
2023/07/27 04:53:51;;;;;;;4.70;2.40;;;;;;;18.39;86.57;99905.66;177337;1267;45862;-80
2023/07/27 04:57:54;;;;;;;4.20;2.50;;;;;;;18.99;83.22;99906.69;178211;1267;45985;-80
2023/07/27 05:01:57;;;;;;;5.70;2.50;;;;;;;19.38;81.14;99906.48;176817;1268;46220;-81
2023/07/27 05:06:00;;;;;;;2.10;1.70;;;;;;;19.54;77.76;99904.27;176682;1270;46290;-80
2023/07/27 05:10:03;;;;;;;3.50;2.70;;;;;;;19.13;77.21;99912.60;176282;1264;58238;-80
2023/07/27 05:14:06;;;;;;;2.60;2.40;;;;;;;18.65;78.99;99905.91;176214;1268;46013;-80
2023/07/27 05:18:09;;;;;;;3.90;2.50;;;;;;;18.26;81.00;99905.34;176211;1268;45999;-80
2023/07/27 05:22:12;;;;;;;7.80;3.30;;;;;;;18.03;83.08;99908.67;175947;1267;46088;-81
2023/07/27 05:26:15;;;;;;;6.20;2.70;;;;;;;18.41;84.93;99905.59;175666;1268;46067;-81
2023/07/27 05:30:18;;;;;;;4.00;2.20;;;;;;;19.11;82.23;99907.52;176199;1269;58244;-81
2023/07/27 05:34:21;;;;;;;4.00;2.70;;;;;;;19.70;79.00;99900.52;175864;1265;45994;-80
2023/07/27 05:38:24;;;;;;;3.70;2.90;;;;;;;20.24;75.39;99904.29;177161;1270;46100;-82
2023/07/27 05:42:27;;;;;;;2.80;1.60;;;;;;;20.51;72.19;99899.11;177582;1266;45949;-82
2023/07/27 05:46:33;;;;;;;5.90;2.40;;;;;;;20.72;70.95;99902.48;177705;1265;46235;-82
2023/07/27 05:50:36;;;;;;;5.60;2.10;;;;;;;20.86;69.83;99902.94;177744;1269;58287;-82
2023/07/27 05:54:39;;;;;;;3.20;1.60;;;;;;;20.95;68.52;99898.24;178135;1265;46126;-82
2023/07/27 05:58:42;;;;;;;3.10;2.60;;;;;;;21.07;68.40;99900.79;177811;1264;46000;-82
2023/07/27 06:02:45;;;;;;;3.60;2.30;;;;;;;21.38;68.69;99902.32;178014;1265;46058;-82
2023/07/27 06:06:48;;;;;;;3.20;1.80;;;;;;;21.67;67.68;99905.64;178430;1265;43979;-82
2023/07/27 06:11:03;;;;;;;5.80;2.30;;;;;;;21.73;66.26;99906.78;178146;1265;58079;-82
2023/07/27 06:15:08;;;;;;;5.50;1.60;;;;;;;21.53;66.15;99907.42;178118;1269;45988;-82
2023/07/27 06:19:11;;;;;;;2.30;1.60;;;;;;;21.45;66.65;99906.42;178088;1267;46143;-82
2023/07/27 06:23:14;;;;;;;2.80;1.60;;;;;;;21.57;67.13;99907.34;178205;1264;46017;-82
2023/07/27 06:27:17;;;;;;;2.10;1.90;;;;;;;21.63;66.46;99907.55;178173;1266;45128;-82
2023/07/27 06:31:20;;;;;;;2.80;1.80;;;;;;;21.38;66.53;99906.28;179514;1267;57984;-82
2023/07/27 06:35:23;;;;;;;8.20;2.50;;;;;;;21.23;65.88;99903.39;179345;1263;45255;-82
2023/07/27 06:39:26;;;;;;;6.10;2.20;;;;;;;20.92;66.78;99903.98;177466;1267;44939;-82
2023/07/27 06:43:30;;;;;;;6.20;1.90;;;;;;;20.84;66.60;99905.95;178053;1264;46157;-82
2023/07/27 06:47:33;;;;;;;2.20;1.90;;;;;;;20.77;66.59;99907.25;177833;1263;44694;-82
2023/07/27 06:51:37;;;;;;;10.10;2.10;;;;;;;20.70;67.16;99902.77;177820;1263;59331;-81
2023/07/27 06:55:40;;;;;;;6.60;3.00;;;;;;;20.38;67.54;99904.48;177811;1264;46162;-82
2023/07/27 06:59:43;;;;;;;3.00;2.30;;;;;;;20.48;68.04;99899.34;177625;1266;46010;-82
2023/07/27 07:03:46;;;;;;;2.30;1.30;;;;;;;20.79;67.46;99898.45;177694;1264;44708;-82
2023/07/27 07:07:49;;;;;;;2.40;1.80;;;;;;;20.93;66.64;99902.66;177603;1264;46587;-82
2023/07/27 07:11:52;;;;;;;3.90;1.90;;;;;;;20.87;65.96;99907.14;177718;1264;59238;-82
2023/07/27 07:15:55;;;;;;;3.50;2.50;;;;;;;20.64;66.57;99906.55;177823;1263;46053;-82
2023/07/27 07:19:58;;;;;;;2.00;1.80;;;;;;;20.98;66.72;99897.11;177998;1266;46129;-82
2023/07/27 07:24:02;;;;;;;2.30;1.80;;;;;;;21.28;65.53;99899.23;178020;1267;46211;-82
2023/07/27 07:28:05;;;;;;;3.00;1.80;;;;;;;21.47;64.36;99895.46;177891;1267;46260;-82
2023/07/27 07:32:08;;;;;;;1.60;1.50;;;;;;;21.66;62.98;99905.06;178194;1267;57934;-82
2023/07/27 07:36:11;;;;;;;2.10;1.20;;;;;;;21.83;63.77;99900.58;178501;1264;44737;-82
2023/07/27 07:40:16;;;;;;;2.00;1.30;;;;;;;22.10;60.29;99897.12;179055;1263;44152;-82
2023/07/27 07:44:19;;;;;;;3.70;2.00;;;;;;;22.01;59.87;99896.00;178424;1269;46216;-82
2023/07/27 07:48:23;;;;;;;3.80;1.70;;;;;;;21.91;59.09;99897.94;178106;1265;45969;-82
2023/07/27 07:52:26;;;;;;;3.30;1.60;;;;;;;21.92;60.34;99891.27;177499;1263;58240;-82
2023/07/27 07:56:29;;;;;;;1.80;1.30;;;;;;;22.30;61.66;99888.50;177660;1267;46004;-82
2023/07/27 08:00:32;;;;;;;3.10;1.50;;;;;;;22.71;58.95;99880.05;178494;1263;46010;-82
2023/07/27 08:04:35;;;;;;;2.00;1.70;;;;;;;22.96;57.75;99886.51;178578;1264;46010;-83
2023/07/27 08:08:38;;;;;;;2.90;1.30;;;;;;;22.88;57.26;99877.16;178363;1269;46134;-82
2023/07/27 08:12:41;;;;;;;4.50;1.40;;;;;;;23.22;58.20;99880.17;178568;1264;57920;-82
2023/07/27 08:16:44;;;;;;;2.50;1.30;;;;;;;23.44;57.00;99876.02;178724;1267;46136;-82
2023/07/27 08:21:04;;;;;;;10.70;2.60;;;;;;;23.41;55.98;99863.58;178955;1263;45946;-82
2023/07/27 08:25:08;;;;;;;1.90;1.10;;;;;;;22.98;55.06;99857.64;178664;1263;46032;-82
2023/07/27 08:29:23;;;;;;;7.90;1.90;;;;;;;23.04;55.89;99852.24;178869;1263;45941;-82
2023/07/27 08:33:26;;;;;;;1.10;0.90;;;;;;;22.88;54.77;99847.92;178547;1264;58260;-82
2023/07/27 08:37:30;;;;;;;4.10;1.20;;;;;;;23.10;55.18;99843.40;178495;1264;46064;-82
2023/07/27 08:41:34;;;;;;;3.80;0.80;;;;;;;23.33;54.06;99842.18;179075;1263;44114;-83
2023/07/27 08:45:37;;;;;;;1.30;1.00;;;;;;;23.43;53.28;99838.05;178853;1263;46167;-83
2023/07/27 08:49:42;;;;;;;4.20;1.70;;;;;;;23.51;52.68;99831.84;179711;1263;46001;-83
2023/07/27 08:53:45;;;;;;;1.20;0.90;;;;;;;23.61;51.79;99830.42;179241;1264;57969;-83
2023/07/27 08:57:48;;;;;;;1.80;1.10;;;;;;;23.75;51.97;99823.67;178756;1264;46194;-83
2023/07/27 09:01:51;;;;;;;1.00;0.90;;;;;;;23.68;51.61;99821.69;178642;1269;45930;-82
2023/07/27 09:05:59;;;;;;;0.80;0.70;;;;;;;23.48;51.41;99826.66;178831;1263;45751;-83
2023/07/27 09:10:07;;;;;;;3.30;1.30;;;;;;;23.49;50.96;99820.66;179130;1264;44702;-82
2023/07/27 09:14:10;;;;;;;1.70;0.90;;;;;;;23.49;52.07;99814.32;179003;1263;57812;-83
2023/07/27 09:18:14;;;;;;;1.30;0.70;;;;;;;23.48;51.69;99814.65;178853;1263;46120;-82
2023/07/27 09:22:18;;;;;;;0.90;0.60;;;;;;;23.39;52.01;99812.70;178858;1265;46100;-83
2023/07/27 09:26:30;;;;;;;3.40;1.20;;;;;;;23.50;51.59;99807.41;178905;1267;45987;-82
2023/07/27 09:30:35;;;;;;;0.90;0.50;;;;;;;23.67;50.49;99792.17;179109;1264;46017;-82
2023/07/27 09:34:38;;;;;;;2.60;1.10;;;;;;;24.03;50.71;99787.74;179041;1263;57962;-82
2023/07/27 09:38:41;;;;;;;5.80;1.80;;;;;;;24.07;49.12;99780.65;179016;1265;44236;-83
2023/07/27 09:42:45;;;;;;;0.90;0.90;;;;;;;24.08;50.22;99776.55;178987;1264;44558;-82
2023/07/27 09:46:48;;;;;;;1.00;0.80;;;;;;;24.09;49.80;99775.86;179100;1263;46152;-83
2023/07/27 09:50:54;;;;;;;1.60;0.80;;;;;;;24.22;49.72;99773.57;179322;1263;46054;-82
2023/07/27 09:54:59;;;;;;;2.60;1.30;;;;;;;24.37;50.31;99774.36;179162;1262;225477;-83
2023/07/27 09:59:02;;;;;;;59.20;13.50;;;;;;;24.62;49.50;99769.59;179154;1263;44231;-82
2023/07/27 10:03:05;;;;;;;2.10;1.20;;;;;;;24.55;48.76;99761.00;179296;1263;43816;-83
2023/07/27 10:07:13;;;;;;;2.80;1.20;;;;;;;23.90;49.20;99755.88;178926;1266;46205;-82
2023/07/27 10:11:16;;;;;;;3.00;1.60;;;;;;;24.16;50.67;99759.17;179211;1263;45942;-83
2023/07/27 10:15:27;;;;;;;3.30;1.70;;;;;;;24.49;50.10;99752.55;179154;1263;59052;-83
2023/07/27 10:19:44;;;;;;;3.20;1.50;;;;;;;24.74;50.24;99747.88;179566;1267;45908;-83
2023/07/27 10:23:54;;;;;;;2.10;1.00;;;;;;;25.13;50.18;99745.44;179155;1263;46060;-83
2023/07/27 10:28:00;;;;;;;1.60;1.20;;;;;;;25.46;48.21;99738.29;179277;1263;46021;-83
2023/07/27 10:32:06;;;;;;;;;;;;;;;25.66;45.72;99730.36;179357;1264;46010;-83
2023/07/27 10:36:09;;;;;;;2.70;1.30;;;;;;;25.74;47.69;99717.40;179283;1263;57707;-83
2023/07/27 10:40:24;;;;;;;15.00;2.10;;;;;;;25.97;46.98;99712.25;179232;1263;46187;-83
2023/07/27 10:44:28;;;;;;;1.50;1.30;;;;;;;25.91;46.27;99712.88;179338;1264;43965;-83
2023/07/27 10:48:31;;;;;;;1.50;1.30;;;;;;;26.05;45.65;99701.94;179343;1263;46070;-83
2023/07/27 10:52:38;;;;;;;2.40;1.50;;;;;;;26.13;45.67;99698.27;179551;1265;46069;-83
2023/07/27 10:56:43;;;;;;;2.60;1.90;;;;;;;25.97;45.41;99692.89;179306;1264;57100;-83
2023/07/27 11:00:47;;;;;;;1.80;1.00;;;;;;;25.48;44.96;99680.13;179383;1265;44855;-83
2023/07/27 11:04:53;;;;;;;2.00;1.60;;;;;;;25.48;44.57;99674.68;179376;1265;44225;-83
2023/07/27 11:08:57;;;;;;;1.90;1.70;;;;;;;25.62;46.27;99669.92;179194;1265;45985;-84
2023/07/27 11:13:00;;;;;;;5.40;1.70;;;;;;;25.89;45.21;99665.73;179601;1264;45323;-83
2023/07/27 11:17:05;;;;;;;2.50;1.40;;;;;;;26.05;45.98;99660.90;179180;1266;59280;-83
2023/07/27 11:21:09;;;;;;;5.20;2.30;;;;;;;25.80;45.16;99659.73;179336;1263;46108;-83
2023/07/27 11:25:13;;;;;;;1.50;1.10;;;;;;;25.80;44.84;99651.28;179418;1264;44075;-83
2023/07/27 11:29:17;;;;;;;2.90;1.90;;;;;;;26.03;45.07;99644.80;179383;1269;46115;-83
2023/07/27 11:33:25;;;;;;;4.30;1.30;;;;;;;25.92;44.09;99642.69;179343;1265;45995;-83
2023/07/27 11:37:31;;;;;;;8.50;2.30;;;;;;;25.98;44.91;99641.21;179255;1264;59232;-83
2023/07/27 11:41:35;;;;;;;2.30;1.30;;;;;;;25.94;44.72;99636.95;179314;1263;46025;-83
2023/07/27 11:45:55;;;;;;;3.80;1.70;;;;;;;25.85;43.77;99628.81;179287;1263;46019;-82
2023/07/27 11:49:59;;;;;;;11.30;3.30;;;;;;;25.82;44.57;99627.71;179413;1263;45983;-83
2023/07/27 11:54:02;;;;;;;3.20;1.90;;;;;;;25.76;45.34;99627.45;179574;1267;47163;-84
2023/07/27 11:58:10;;;;;;;2.80;1.50;;;;;;;25.86;46.23;99616.67;179528;1262;59594;-83
2023/07/27 12:02:13;;;;;;;1.50;1.10;;;;;;;25.97;44.62;99604.85;179453;1263;44256;-83
2023/07/27 12:06:24;;;;;;;2.50;1.30;;;;;;;26.30;45.78;99604.98;179547;1264;46012;-83
2023/07/27 12:10:28;;;;;;;2.10;1.20;;;;;;;26.74;44.95;99597.23;179480;1263;44641;-83
2023/07/27 12:14:33;;;;;;;2.20;1.30;;;;;;;26.90;43.43;99600.38;179561;1263;43929;-83
2023/07/27 12:18:36;;;;;;;2.10;1.40;;;;;;;26.96;44.95;99598.17;179754;1262;57952;-82
2023/07/27 12:22:43;;;;;;;2.60;1.10;;;;;;;27.08;46.09;99587.53;179674;1263;45976;-83
2023/07/27 12:26:46;;;;;;;1.90;1.20;;;;;;;27.23;45.49;99582.96;179769;1264;46059;-83
2023/07/27 12:30:53;;;;;;;2.30;1.40;;;;;;;27.36;44.64;99578.48;179587;1264;46171;-83
2023/07/27 12:35:17;;;;;;;10.90;2.50;;;;;;;27.22;42.72;99576.14;179643;1267;45992;-83
2023/07/27 12:39:23;;;;;;;1.80;1.60;;;;;;;27.11;44.52;99569.29;179484;1263;58099;-83
2023/07/27 12:43:27;;;;;;;6.80;1.80;;;;;;;27.01;44.56;99564.46;179623;1263;44331;-83
2023/07/27 12:47:30;;;;;;;3.20;1.20;;;;;;;26.94;45.37;99566.89;179189;1265;45183;-83
2023/07/27 12:51:34;;;;;;;21.80;5.50;;;;;;;26.94;44.98;99558.41;179266;1264;45954;-84
2023/07/27 12:55:38;;;;;;;6.60;2.10;;;;;;;26.93;45.42;99560.20;179643;1265;44638;-83
2023/07/27 12:59:42;;;;;;;3.90;1.30;;;;;;;26.90;44.12;99552.04;179726;1265;57908;-82
2023/07/27 13:03:45;;;;;;;26.30;5.20;;;;;;;26.80;46.19;99549.54;179817;1265;44962;-82
2023/07/27 13:07:49;;;;;;;5.10;2.10;;;;;;;26.89;46.61;99545.40;179791;1264;46031;-81
2023/07/27 13:11:52;;;;;;;18.90;4.50;;;;;;;26.93;46.08;99540.35;179842;1267;44180;-82
2023/07/27 13:15:56;;;;;;;3.10;1.90;;;;;;;27.09;46.84;99540.83;179341;1265;45983;-82
2023/07/27 13:19:59;;;;;;;27.70;4.80;;;;;;;27.32;46.17;99536.06;179323;1264;57948;-82
2023/07/27 13:24:03;;;;;;;4.00;1.50;;;;;;;27.28;44.91;99533.61;179533;1263;44074;-81
2023/07/27 13:28:06;;;;;;;3.20;2.00;;;;;;;27.26;44.28;99528.07;179395;1269;43533;-82
2023/07/27 13:32:11;;;;;;;3.10;2.20;;;;;;;27.23;43.86;99528.75;179337;1264;46060;-82
2023/07/27 13:36:15;;;;;;;1.80;1.70;;;;;;;27.12;44.03;99524.86;179533;1264;44333;-81
2023/07/27 13:40:19;;;;;;;7.70;3.10;;;;;;;27.01;43.96;99516.11;179494;1265;58257;-82
2023/07/27 13:44:22;;;;;;;5.70;2.30;;;;;;;26.85;43.63;99507.38;179603;1264;45956;-83
2023/07/27 13:48:26;;;;;;;4.80;2.00;;;;;;;26.82;44.52;99511.41;179739;1263;45206;-81
2023/07/27 13:52:30;;;;;;;1.80;1.40;;;;;;;26.74;44.29;99500.85;179890;1265;45464;-82
2023/07/27 13:56:34;;;;;;;1.50;1.00;;;;;;;26.73;43.83;99501.27;179859;1263;43896;-82
2023/07/27 14:00:40;;;;;;;2.10;1.90;;;;;;;26.82;45.40;99497.95;180008;1264;59193;-82
2023/07/27 14:04:47;;;;;;;1.90;1.80;;;;;;;26.92;44.47;99494.76;179974;1263;44032;-81
2023/07/27 14:08:55;;;;;;;25.50;4.40;;;;;;;27.05;45.21;99491.15;179967;1264;46039;-82
2023/07/27 14:13:01;;;;;;;3.10;2.10;;;;;;;27.16;45.06;99495.10;179904;1263;43534;-82
2023/07/27 14:17:05;;;;;;;1.10;1.00;;;;;;;27.12;45.26;99488.29;179525;1263;43735;-82
2023/07/27 14:21:09;;;;;;;17.10;2.50;;;;;;;27.06;44.54;99485.16;179994;1263;58081;-82
2023/07/27 14:25:13;;;;;;;18.20;4.30;;;;;;;26.82;44.28;99478.48;179740;1263;45954;-82
2023/07/27 14:29:16;;;;;;;5.50;1.50;;;;;;;26.54;44.87;99477.33;179822;1263;43521;-82
2023/07/27 14:33:20;;;;;;;2.90;1.50;;;;;;;26.53;45.31;99472.46;179674;1263;43622;-83
2023/07/27 14:37:23;;;;;;;3.10;1.90;;;;;;;26.58;45.39;99469.91;179697;1262;44055;-83
2023/07/27 14:41:27;;;;;;;3.30;1.20;;;;;;;26.59;45.66;99469.22;179695;1264;58284;-83
2023/07/27 14:45:36;;;;;;;1.20;1.20;;;;;;;26.46;44.84;99467.08;179503;1265;44790;-83
2023/07/27 14:49:39;;;;;;;5.00;1.80;;;;;;;26.35;46.13;99470.85;179709;1263;47562;-83
2023/07/27 14:53:43;;;;;;;8.90;2.30;;;;;;;26.26;46.16;99462.92;179484;1264;44906;-83
2023/07/27 14:57:47;;;;;;;2.60;1.20;;;;;;;26.24;45.79;99451.55;179646;1265;45076;-82
2023/07/27 15:01:50;;;;;;;4.30;1.50;;;;;;;26.17;45.83;99441.58;180069;1264;57983;-83
2023/07/27 15:05:59;;;;;;;2.70;1.00;;;;;;;26.17;45.88;99444.14;179485;1265;45953;-83
2023/07/27 15:10:04;;;;;;;2.20;1.80;;;;;;;26.18;46.57;99440.25;179824;1265;43571;-82
2023/07/27 15:14:30;;;;;;;5.50;2.90;;;;;;;26.22;46.51;99441.62;179629;1263;46129;-83
2023/07/27 15:18:34;;;;;;;1.70;1.50;;;;;;;26.07;46.87;99441.76;179426;1264;46107;-83
2023/07/27 15:22:38;;;;;;;2.90;1.30;;;;;;;25.97;47.56;99439.59;179558;1263;57326;-83
2023/07/27 15:26:41;;;;;;;2.20;1.50;;;;;;;25.95;47.97;99439.13;179612;1263;46105;-83
2023/07/27 15:30:45;;;;;;;2.80;1.60;;;;;;;26.00;46.73;99436.84;179372;1264;45923;-83
2023/07/27 15:34:51;;;;;;;7.80;2.70;;;;;;;25.98;46.38;99439.06;179604;1262;46024;-83
2023/07/27 15:38:54;;;;;;;5.30;1.90;;;;;;;25.81;45.34;99442.38;179447;1263;44001;-83
2023/07/27 15:42:58;;;;;;;3.10;1.50;;;;;;;25.62;45.20;99445.23;179271;1264;57927;-83
2023/07/27 15:47:01;;;;;;;4.00;1.40;;;;;;;25.45;45.97;99444.17;179558;1263;44457;-83
2023/07/27 15:51:05;;;;;;;8.10;2.40;;;;;;;25.28;46.61;99447.98;179375;1264;45904;-83
2023/07/27 15:55:09;;;;;;;4.40;1.60;;;;;;;25.07;46.95;99453.14;179552;1263;44628;-83
2023/07/27 15:59:12;;;;;;;3.90;2.10;;;;;;;24.83;47.77;99455.77;179088;1264;45998;-83
2023/07/27 16:03:16;;;;;;;3.90;1.80;;;;;;;24.59;49.19;99458.17;179036;1264;59142;-83
2023/07/27 16:07:19;;;;;;;6.70;2.80;;;;;;;24.40;49.67;99448.91;179114;1265;45924;-83
2023/07/27 16:11:23;;;;;;;4.00;1.90;;;;;;;24.22;50.46;99447.98;179056;1263;45991;-83
2023/07/27 16:15:28;;;;;;;3.60;1.70;;;;;;;24.09;51.28;99451.85;178977;1264;46040;-83
2023/07/27 16:19:32;;;;;;;2.70;1.70;;;;;;;24.02;50.56;99454.39;179077;1264;44058;-83
2023/07/27 16:23:35;;;;;;;2.70;2.00;;;;;;;24.00;50.55;99449.61;179220;1263;59339;-83
2023/07/27 16:27:38;;;;;;;3.40;1.90;;;;;;;24.02;51.10;99448.36;179239;1265;43826;-83
2023/07/27 16:31:41;;;;;;;25.50;7.10;;;;;;;23.96;51.21;99446.27;178781;1265;46186;-83
2023/07/27 16:35:45;;;;;;;3.50;1.90;;;;;;;23.83;51.72;99444.27;178822;1264;45948;-83
2023/07/27 16:39:48;;;;;;;3.70;2.00;;;;;;;23.65;52.15;99443.60;178704;1269;44241;-83
2023/07/27 16:43:51;;;;;;;3.30;2.30;;;;;;;23.48;52.96;99447.74;179023;1264;58266;-83
2023/07/27 16:47:54;;;;;;;1.90;1.50;;;;;;;23.37;53.18;99447.82;178813;1263;44023;-84
2023/07/27 16:51:57;;;;;;;2.90;1.90;;;;;;;23.29;53.07;99443.71;178664;1265;44868;-83
2023/07/27 16:56:10;;;;;;;3.90;1.70;;;;;;;23.19;53.59;99446.95;178528;1264;46155;-84
2023/07/27 17:00:14;;;;;;;2.80;1.70;;;;;;;23.11;54.62;99442.09;178556;1266;45968;-84
2023/07/27 17:04:17;;;;;;;2.60;1.60;;;;;;;23.07;54.54;99439.48;178524;1265;60139;-84
2023/07/27 17:08:21;;;;;;;7.50;2.80;;;;;;;23.03;55.41;99440.27;178394;1264;46215;-84
2023/07/27 17:12:24;;;;;;;7.00;1.60;;;;;;;22.98;56.06;99439.71;178514;1265;46110;-84
2023/07/27 17:16:27;;;;;;;3.20;2.40;;;;;;;22.93;58.25;99440.33;178319;1263;45947;-83
2023/07/27 17:20:30;;;;;;;3.60;3.00;;;;;;;22.84;62.26;99434.92;178798;1262;46114;-84
2023/07/27 17:24:33;;;;;;;4.60;1.70;;;;;;;22.76;65.66;99427.69;178987;1263;59585;-83
2023/07/27 17:28:36;;;;;;;2.70;1.90;;;;;;;22.71;66.81;99424.33;178653;1264;46085;-83
2023/07/27 17:32:41;;;;;;;7.70;2.80;;;;;;;22.55;69.08;99422.55;178607;1264;46033;-84
2023/07/27 17:36:44;;;;;;;4.90;2.00;;;;;;;22.35;67.81;99425.58;178921;1263;46024;-84
2023/07/27 17:40:47;;;;;;;3.00;2.00;;;;;;;22.16;68.64;99434.52;179373;1263;46044;-83
2023/07/27 17:44:51;;;;;;;2.00;1.80;;;;;;;21.95;67.08;99437.71;178772;1262;59295;-83
2023/07/27 17:48:54;;;;;;;5.80;2.80;;;;;;;21.73;68.28;99443.04;178842;1263;46132;-82
2023/07/27 17:52:59;;;;;;;6.00;2.40;;;;;;;21.51;69.28;99444.81;178686;1265;44968;-82
2023/07/27 17:57:02;;;;;;;4.00;1.20;;;;;;;21.21;70.24;99452.71;178534;1265;44034;-83
2023/07/27 18:01:07;;;;;;;3.40;2.00;;;;;;;20.97;71.33;99456.08;178275;1265;46086;-83
2023/07/27 18:05:10;;;;;;;2.50;1.90;;;;;;;20.77;73.07;99454.48;178370;1265;57944;-84
2023/07/27 18:09:14;;;;;;;5.30;2.60;;;;;;;20.58;74.30;99459.01;178031;1264;46171;-83
2023/07/27 18:13:17;;;;;;;2.80;2.20;;;;;;;20.44;75.14;99456.59;178423;1264;44031;-83
2023/07/27 18:17:20;;;;;;;7.70;3.30;;;;;;;20.32;76.21;99464.77;178670;1269;45880;-82
2023/07/27 18:21:24;;;;;;;2.90;2.10;;;;;;;20.19;77.93;99462.20;178762;1265;46197;-83
2023/07/27 18:25:27;;;;;;;9.20;3.00;;;;;;;20.09;78.56;99453.57;178419;1265;59370;-82
2023/07/27 18:29:31;;;;;;;5.00;3.00;;;;;;;20.04;79.52;99459.29;178482;1266;46734;-83
2023/07/27 18:33:34;;;;;;;9.40;2.70;;;;;;;19.97;83.23;99461.54;178858;1264;45967;-83
2023/07/27 18:37:39;;;;;;;7.80;3.10;;;;;;;19.77;88.08;99466.04;179093;1264;45020;-83
2023/07/27 18:41:43;;;;;;;3.00;2.70;;;;;;;19.58;89.72;99463.08;178841;1264;45979;-83
2023/07/27 18:45:53;;;;;;;4.50;2.80;;;;;;;19.37;91.59;99462.08;178550;1264;58193;-83
2023/07/27 18:49:56;;;;;;;5.10;3.50;;;;;;;19.21;93.24;99467.71;178580;1264;44634;-82
2023/07/27 18:54:00;;;;;;;4.50;2.70;;;;;;;19.03;95.66;99467.23;178410;1265;46251;-82
2023/07/27 18:58:03;;;;;;;2.90;2.70;;;;;;;18.90;95.83;99468.45;178363;1265;46126;-82
2023/07/27 19:02:06;;;;;;;4.90;3.00;;;;;;;18.82;98.54;99466.66;178271;1264;46456;-83
2023/07/27 19:06:09;;;;;;;5.00;3.10;;;;;;;18.69;100.00;99467.14;178910;1263;57928;-82
2023/07/27 19:10:13;;;;;;;3.90;3.30;;;;;;;18.55;100.00;99464.25;178213;1264;44093;-82